Time;durP1;ratioP1;P1;durP2;ratioP2;P2;SDS_P1;SDS_P2;PMS_P1;PMS_P2;Temp;Humidity;BMP_temperature;BMP_pressure;BME280_temperature;BME280_humidity;BME280_pressure;Samples;Min_cycle;Max_cycle;Signal;HPM_P1;HPM_P2
2022/11/21 00:00:14;;;;;;;19.17;12.85;;;;;;;;;;6263547;28;20087;-63
2022/11/21 00:03:16;;;;;;;73.20;37.25;;;;;;;;;;6265378;28;20394;-61
2022/11/21 00:06:18;;;;;;;102.38;53.17;;;;;;;;;;6263120;28;20083;-61
2022/11/21 00:09:21;;;;;;;104.93;52.83;;;;;;;;;;6268117;28;20064;-61
2022/11/21 00:12:23;;;;;;;288.58;122.47;;;;;;;;;;6264585;28;20048;-61
2022/11/21 00:15:26;;;;;;;161.40;76.03;;;;;;;;;;6265601;28;20117;-61
2022/11/21 00:18:27;;;;;;;202.10;96.25;;;;;;;;;;6267309;28;20425;-62
2022/11/21 00:21:29;;;;;;;71.10;37.35;;;;;;;;;;6269615;28;20042;-62
2022/11/21 00:24:34;;;;;;;32.15;18.30;;;;;;;;;;6268885;28;20053;-62
2022/11/21 00:27:36;;;;;;;20.23;12.68;;;;;;;;;;6267216;28;20057;-62
2022/11/21 00:30:37;;;;;;;17.73;11.43;;;;;;;;;;6266925;28;20069;-62
2022/11/21 00:33:39;;;;;;;15.27;10.98;;;;;;;;;;6269083;28;20052;-62
2022/11/21 00:36:41;;;;;;;14.32;10.30;;;;;;;;;;6269952;28;20818;-62
2022/11/21 00:39:44;;;;;;;14.60;10.45;;;;;;;;;;6267480;28;20094;-62
2022/11/21 00:42:45;;;;;;;17.35;11.07;;;;;;;;;;6267540;28;20064;-62
2022/11/21 00:45:47;;;;;;;14.60;10.73;;;;;;;;;;6270794;28;20056;-62
2022/11/21 00:48:49;;;;;;;15.32;10.13;;;;;;;;;;6266869;28;20080;-62
2022/11/21 00:51:50;;;;;;;14.93;10.63;;;;;;;;;;6267905;28;20060;-62
2022/11/21 00:54:53;;;;;;;15.35;10.27;;;;;;;;;;6271688;28;20056;-62
2022/11/21 00:57:55;;;;;;;14.77;10.13;;;;;;;;;;6265838;28;20290;-62
2022/11/21 01:01:04;;;;;;;14.52;10.05;;;;;;;;;;6265800;28;20067;-62
2022/11/21 01:04:06;;;;;;;14.77;10.82;;;;;;;;;;6271170;28;20048;-62
2022/11/21 01:07:08;;;;;;;15.80;11.05;;;;;;;;;;6262037;28;20049;-62
2022/11/21 01:10:11;;;;;;;17.88;11.15;;;;;;;;;;6263794;28;20049;-62
2022/11/21 01:13:13;;;;;;;14.20;9.87;;;;;;;;;;6268800;28;20102;-63
2022/11/21 01:16:16;;;;;;;16.13;11.05;;;;;;;;;;6267276;28;20151;-62
2022/11/21 01:19:18;;;;;;;15.27;11.10;;;;;;;;;;6266882;28;20079;-62
2022/11/21 01:22:20;;;;;;;16.17;11.05;;;;;;;;;;6268092;28;20051;-62
2022/11/21 01:25:23;;;;;;;16.75;10.93;;;;;;;;;;6266225;28;20057;-62
2022/11/21 01:28:24;;;;;;;14.95;10.63;;;;;;;;;;6264640;28;20059;-62
2022/11/21 01:31:28;;;;;;;16.40;10.95;;;;;;;;;;6264574;28;20056;-62
2022/11/21 01:34:29;;;;;;;16.15;10.88;;;;;;;;;;6269267;28;20271;-62
2022/11/21 01:37:31;;;;;;;14.63;10.70;;;;;;;;;;6264929;28;20241;-61
2022/11/21 01:40:39;;;;;;;15.32;10.65;;;;;;;;;;6268905;28;20338;-62
2022/11/21 01:43:41;;;;;;;15.05;10.32;;;;;;;;;;6267873;28;20053;-62
2022/11/21 01:46:42;;;;;;;15.32;10.93;;;;;;;;;;6267345;28;20057;-62
2022/11/21 01:49:45;;;;;;;14.48;11.23;;;;;;;;;;6269581;28;20053;-62
2022/11/21 01:52:46;;;;;;;20.05;11.30;;;;;;;;;;6265361;28;20049;-62
2022/11/21 01:55:50;;;;;;;15.95;10.73;;;;;;;;;;6265615;28;20053;-62
2022/11/21 01:58:53;;;;;;;15.45;10.90;;;;;;;;;;6256102;28;20049;-62
2022/11/21 02:01:55;;;;;;;16.67;11.13;;;;;;;;;;6260928;28;20061;-62
2022/11/21 02:04:58;;;;;;;16.25;10.80;;;;;;;;;;6265914;28;20059;-62
2022/11/21 02:08:03;;;;;;;17.17;12.07;;;;;;;;;;6264636;28;20064;-62
2022/11/21 02:11:12;;;;;;;14.73;10.60;;;;;;;;;;6261625;28;20068;-62
2022/11/21 02:14:14;;;;;;;16.77;11.73;;;;;;;;;;6262239;28;20431;-62
2022/11/21 02:17:18;;;;;;;19.50;11.65;;;;;;;;;;6261992;28;20052;-62
2022/11/21 02:20:21;;;;;;;15.35;11.02;;;;;;;;;;6262676;28;20041;-62
2022/11/21 02:23:27;;;;;;;15.87;11.13;;;;;;;;;;6262199;28;20224;-62
2022/11/21 02:26:30;;;;;;;16.52;11.73;;;;;;;;;;6264430;28;20101;-62
2022/11/21 02:29:32;;;;;;;16.10;11.27;;;;;;;;;;6259530;28;20241;-61
2022/11/21 02:32:36;;;;;;;20.92;12.27;;;;;;;;;;6257407;28;20042;-62
2022/11/21 02:35:37;;;;;;;17.55;12.23;;;;;;;;;;6268474;28;20060;-63
2022/11/21 02:38:39;;;;;;;18.52;11.82;;;;;;;;;;6259994;28;20269;-62
2022/11/21 02:41:45;;;;;;;16.58;12.02;;;;;;;;;;6264951;28;20091;-61
2022/11/21 02:44:52;;;;;;;17.00;11.93;;;;;;;;;;6269231;28;20323;-64
2022/11/21 02:47:55;;;;;;;17.83;12.52;;;;;;;;;;6271615;28;20267;-62
2022/11/21 02:50:57;;;;;;;20.05;12.45;;;;;;;;;;6268655;28;20103;-64
2022/11/21 02:53:58;;;;;;;16.98;12.10;;;;;;;;;;6268094;28;20059;-64
2022/11/21 02:57:01;;;;;;;19.05;11.70;;;;;;;;;;6271249;28;20321;-63
2022/11/21 03:00:04;;;;;;;16.58;12.15;;;;;;;;;;6261777;28;20329;-62
2022/11/21 03:03:05;;;;;;;17.83;12.00;;;;;;;;;;6267511;28;20045;-66
2022/11/21 03:06:07;;;;;;;18.70;12.00;;;;;;;;;;6265135;28;20119;-62
2022/11/21 03:09:09;;;;;;;17.23;11.50;;;;;;;;;;6266845;28;20052;-63
2022/11/21 03:12:12;;;;;;;18.33;11.57;;;;;;;;;;6264520;28;20359;-62
2022/11/21 03:15:15;;;;;;;15.55;11.07;;;;;;;;;;6265713;28;20060;-62
2022/11/21 03:18:16;;;;;;;17.30;11.45;;;;;;;;;;6263109;28;20289;-62
2022/11/21 03:21:18;;;;;;;18.42;11.75;;;;;;;;;;6262869;28;20053;-62
2022/11/21 03:24:20;;;;;;;17.77;11.60;;;;;;;;;;6266211;28;20053;-62
2022/11/21 03:27:23;;;;;;;16.98;11.75;;;;;;;;;;6263728;28;20434;-62
2022/11/21 03:30:26;;;;;;;15.98;11.13;;;;;;;;;;6264500;28;20237;-62
2022/11/21 03:33:28;;;;;;;14.07;11.13;;;;;;;;;;6263183;28;20221;-62
2022/11/21 03:36:29;;;;;;;19.40;12.07;;;;;;;;;;6259284;28;20232;-62
2022/11/21 03:39:31;;;;;;;15.50;10.95;;;;;;;;;;6267104;28;20056;-62
2022/11/21 03:42:34;;;;;;;18.13;12.25;;;;;;;;;;6257822;28;20052;-63
2022/11/21 03:45:35;;;;;;;16.02;11.63;;;;;;;;;;6261696;28;20060;-62
2022/11/21 03:48:38;;;;;;;18.15;11.85;;;;;;;;;;6262410;28;20057;-62
2022/11/21 03:51:40;;;;;;;14.95;11.38;;;;;;;;;;6261977;28;20209;-63
2022/11/21 03:54:41;;;;;;;19.70;12.27;;;;;;;;;;6273175;28;20049;-62
2022/11/21 03:57:45;;;;;;;18.50;11.98;;;;;;;;;;6275008;28;20090;-62
2022/11/21 04:00:47;;;;;;;16.40;11.98;;;;;;;;;;6259393;28;20330;-62
2022/11/21 04:03:50;;;;;;;16.40;11.50;;;;;;;;;;6269295;28;20313;-62
2022/11/21 04:06:51;;;;;;;18.25;11.60;;;;;;;;;;6264087;28;20057;-62
2022/11/21 04:09:53;;;;;;;16.25;12.13;;;;;;;;;;6270450;28;20233;-62
2022/11/21 04:12:56;;;;;;;17.50;11.68;;;;;;;;;;6267797;28;20056;-62
2022/11/21 04:15:58;;;;;;;15.95;11.70;;;;;;;;;;6264674;28;20225;-63
2022/11/21 04:18:59;;;;;;;18.02;11.77;;;;;;;;;;6270047;28;20045;-62
2022/11/21 04:22:01;;;;;;;17.20;11.65;;;;;;;;;;6269812;28;20071;-62
2022/11/21 04:25:03;;;;;;;19.50;12.13;;;;;;;;;;6268476;28;20398;-62
2022/11/21 04:28:06;;;;;;;18.23;12.00;;;;;;;;;;6264669;28;20382;-62
2022/11/21 04:31:09;;;;;;;17.60;11.93;;;;;;;;;;6269570;28;20056;-62
2022/11/21 04:34:11;;;;;;;17.25;11.55;;;;;;;;;;6261274;28;20049;-62
2022/11/21 04:37:12;;;;;;;16.23;11.95;;;;;;;;;;6269839;28;21882;-62
2022/11/21 04:40:15;;;;;;;17.55;11.95;;;;;;;;;;6266095;28;20325;-62
2022/11/21 04:43:18;;;;;;;18.98;11.88;;;;;;;;;;6270483;28;20070;-62
2022/11/21 04:46:20;;;;;;;18.42;11.27;;;;;;;;;;6266881;28;20053;-62
2022/11/21 04:49:21;;;;;;;15.13;10.85;;;;;;;;;;6269935;28;20215;-62
2022/11/21 04:52:23;;;;;;;17.25;12.10;;;;;;;;;;6269632;28;20053;-62
2022/11/21 04:55:27;;;;;;;16.23;11.05;;;;;;;;;;6270092;28;20053;-62
2022/11/21 04:58:30;;;;;;;18.25;12.23;;;;;;;;;;6268369;28;20049;-62
2022/11/21 05:01:32;;;;;;;20.55;12.10;;;;;;;;;;6267485;28;20352;-62
2022/11/21 05:04:34;;;;;;;14.70;11.10;;;;;;;;;;6259915;28;20049;-63
2022/11/21 05:07:35;;;;;;;18.42;11.60;;;;;;;;;;6265679;28;20046;-62
2022/11/21 05:13:54;;;;;;;17.75;11.98;;;;;;;;;;6272570;28;20059;-62
2022/11/21 05:16:56;;;;;;;23.10;12.27;;;;;;;;;;6267768;28;20065;-62
2022/11/21 05:19:58;;;;;;;14.75;11.93;;;;;;;;;;6262466;28;20346;-62
2022/11/21 05:23:01;;;;;;;19.65;12.70;;;;;;;;;;6262918;28;21560;-62
2022/11/21 05:26:02;;;;;;;19.08;13.70;;;;;;;;;;6257387;28;20065;-62
2022/11/21 05:29:06;;;;;;;21.38;13.23;;;;;;;;;;6262046;28;20227;-62
2022/11/21 05:32:07;;;;;;;20.10;13.07;;;;;;;;;;6262127;28;20060;-62
2022/11/21 05:35:09;;;;;;;18.38;13.27;;;;;;;;;;6264520;28;20049;-62
2022/11/21 05:38:11;;;;;;;18.30;13.10;;;;;;;;;;6263556;28;20068;-62
2022/11/21 05:41:13;;;;;;;17.73;12.98;;;;;;;;;;6261118;28;20045;-62
2022/11/21 05:44:15;;;;;;;19.00;13.50;;;;;;;;;;6265940;28;20068;-62
2022/11/21 05:47:16;;;;;;;18.45;13.57;;;;;;;;;;6268598;28;20249;-63
2022/11/21 05:50:18;;;;;;;20.73;13.35;;;;;;;;;;6265825;28;20053;-62
2022/11/21 05:53:20;;;;;;;18.85;12.57;;;;;;;;;;6268520;28;20230;-62
2022/11/21 05:56:22;;;;;;;19.15;13.32;;;;;;;;;;6268062;28;20272;-62
2022/11/21 05:59:25;;;;;;;21.45;14.60;;;;;;;;;;6266028;28;20057;-62
2022/11/21 06:05:45;;;;;;;19.45;12.95;;;;;;;;;;6266612;28;20045;-62
2022/11/21 06:08:47;;;;;;;18.60;12.88;;;;;;;;;;6263464;28;20045;-62
2022/11/21 06:11:48;;;;;;;19.02;13.50;;;;;;;;;;6263431;28;20057;-62
2022/11/21 06:14:51;;;;;;;17.95;13.02;;;;;;;;;;6264796;28;20061;-63
2022/11/21 06:17:53;;;;;;;20.05;13.63;;;;;;;;;;6265389;28;21187;-63
2022/11/21 06:21:01;;;;;;;19.33;13.55;;;;;;;;;;6265059;28;20053;-63
2022/11/21 06:24:02;;;;;;;21.00;14.40;;;;;;;;;;6264910;28;21697;-63
2022/11/21 06:27:04;;;;;;;19.70;13.63;;;;;;;;;;6265186;28;20075;-62
2022/11/21 06:30:09;;;;;;;20.55;13.75;;;;;;;;;;6265835;28;20052;-62
2022/11/21 06:33:10;;;;;;;20.23;13.45;;;;;;;;;;6266938;28;20048;-62
2022/11/21 06:36:14;;;;;;;22.95;13.40;;;;;;;;;;6267315;28;20037;-63
2022/11/21 06:39:16;;;;;;;20.25;13.70;;;;;;;;;;6265576;28;20053;-63
2022/11/21 06:42:17;;;;;;;20.90;13.75;;;;;;;;;;6264015;28;20052;-63
2022/11/21 06:45:20;;;;;;;20.75;13.32;;;;;;;;;;6262960;28;20052;-63
2022/11/21 06:48:22;;;;;;;19.60;13.55;;;;;;;;;;6264729;28;20138;-63
2022/11/21 06:51:25;;;;;;;20.27;13.40;;;;;;;;;;6266895;28;20059;-64
2022/11/21 06:54:26;;;;;;;19.70;13.75;;;;;;;;;;6264159;28;20151;-63
2022/11/21 06:57:28;;;;;;;19.67;12.63;;;;;;;;;;6265970;28;20152;-63
2022/11/21 07:00:31;;;;;;;23.63;14.70;;;;;;;;;;6262292;28;20280;-63
2022/11/21 07:03:33;;;;;;;23.05;13.75;;;;;;;;;;6264286;28;20097;-63
2022/11/21 07:06:34;;;;;;;20.20;13.70;;;;;;;;;;6263390;28;20140;-63
2022/11/21 07:09:36;;;;;;;19.95;13.32;;;;;;;;;;6266067;28;20061;-63
2022/11/21 07:16:03;;;;;;;17.52;12.57;;;;;;;;;;6254868;28;20076;-64
2022/11/21 07:19:05;;;;;;;20.73;13.60;;;;;;;;;;6267649;28;20049;-63
2022/11/21 07:22:07;;;;;;;19.92;13.18;;;;;;;;;;6263286;28;20067;-63
2022/11/21 07:25:09;;;;;;;19.67;12.60;;;;;;;;;;6265776;28;20081;-63
2022/11/21 07:28:11;;;;;;;16.65;12.63;;;;;;;;;;6259773;28;20132;-63
2022/11/21 07:31:14;;;;;;;16.73;12.57;;;;;;;;;;6249662;28;20068;-64
2022/11/21 07:34:16;;;;;;;19.33;12.48;;;;;;;;;;6269055;28;20052;-64
2022/11/21 07:37:17;;;;;;;18.65;13.57;;;;;;;;;;6272124;28;20049;-65
2022/11/21 07:40:19;;;;;;;21.10;13.27;;;;;;;;;;6271083;28;20253;-64
2022/11/21 07:43:21;;;;;;;20.02;12.45;;;;;;;;;;6275970;28;20132;-65
2022/11/21 07:46:24;;;;;;;20.70;12.57;;;;;;;;;;6269731;28;20056;-64
2022/11/21 07:49:26;;;;;;;18.00;11.50;;;;;;;;;;6272269;28;20071;-64
2022/11/21 07:52:29;;;;;;;16.50;10.38;;;;;;;;;;6272745;28;20055;-64
2022/11/21 07:55:31;;;;;;;12.82;9.70;;;;;;;;;;6274545;28;20044;-64
2022/11/21 07:58:33;;;;;;;15.50;9.25;;;;;;;;;;6269993;28;20664;-63
2022/11/21 08:01:36;;;;;;;16.17;10.38;;;;;;;;;;6272441;28;20053;-66
2022/11/21 08:04:37;;;;;;;14.68;10.43;;;;;;;;;;6262217;28;20118;-66
2022/11/21 08:07:39;;;;;;;14.10;10.15;;;;;;;;;;6268609;28;20053;-65
2022/11/21 08:10:42;;;;;;;15.80;10.80;;;;;;;;;;6272632;28;20099;-65
2022/11/21 08:13:43;;;;;;;13.05;10.05;;;;;;;;;;6268525;28;20057;-66
2022/11/21 08:16:46;;;;;;;14.68;11.10;;;;;;;;;;6270205;28;20044;-65
2022/11/21 08:19:48;;;;;;;13.82;9.57;;;;;;;;;;6269703;28;20344;-65
2022/11/21 08:22:50;;;;;;;14.18;9.45;;;;;;;;;;6269021;28;20072;-65
2022/11/21 08:25:52;;;;;;;13.25;10.10;;;;;;;;;;6271772;28;20049;-65
2022/11/21 08:28:53;;;;;;;17.30;10.18;;;;;;;;;;6267344;28;20069;-65
2022/11/21 08:31:56;;;;;;;14.88;10.60;;;;;;;;;;6268601;28;20055;-65
2022/11/21 08:34:58;;;;;;;15.23;10.80;;;;;;;;;;6275254;28;20049;-65
2022/11/21 08:38:01;;;;;;;13.23;10.52;;;;;;;;;;6273822;28;20067;-65
2022/11/21 08:44:22;;;;;;;15.05;11.02;;;;;;;;;;6268722;28;20045;-65
2022/11/21 08:47:25;;;;;;;14.82;11.27;;;;;;;;;;6271752;28;20356;-65
2022/11/21 08:50:28;;;;;;;15.70;10.88;;;;;;;;;;6267601;28;20210;-65
2022/11/21 08:53:29;;;;;;;19.08;12.27;;;;;;;;;;6269115;28;20070;-67
2022/11/21 08:56:31;;;;;;;16.23;11.82;;;;;;;;;;6268066;28;20060;-70
2022/11/21 08:59:33;;;;;;;16.85;13.10;;;;;;;;;;6267856;28;20078;-67
2022/11/21 09:02:36;;;;;;;18.00;13.15;;;;;;;;;;6259878;28;20049;-66
2022/11/21 09:05:37;;;;;;;16.40;11.65;;;;;;;;;;6271278;28;20210;-66
2022/11/21 09:08:39;;;;;;;15.88;10.88;;;;;;;;;;6269719;28;20053;-65
2022/11/21 09:11:41;;;;;;;15.20;10.63;;;;;;;;;;6268212;28;20087;-64
2022/11/21 09:18:04;;;;;;;15.32;9.60;;;;;;;;;;6267822;28;20365;-63
2022/11/21 09:21:05;;;;;;;15.70;12.20;;;;;;;;;;6275244;28;20060;-62
2022/11/21 09:24:07;;;;;;;13.85;11.60;;;;;;;;;;6268545;28;20057;-64
2022/11/21 09:27:09;;;;;;;12.25;9.55;;;;;;;;;;6267465;28;20049;-63
2022/11/21 09:30:11;;;;;;;16.42;9.75;;;;;;;;;;6267275;28;20061;-63
2022/11/21 09:33:15;;;;;;;12.87;8.37;;;;;;;;;;6269167;28;20045;-62
2022/11/21 09:36:17;;;;;;;10.45;7.88;;;;;;;;;;6264907;28;20116;-63
2022/11/21 09:39:20;;;;;;;8.85;7.28;;;;;;;;;;6266103;28;20077;-62
2022/11/21 09:42:36;;;;;;;8.38;7.15;;;;;;;;;;6268426;28;20399;-63
2022/11/21 09:45:42;;;;;;;9.30;7.30;;;;;;;;;;6266817;28;20057;-64
2022/11/21 09:48:52;;;;;;;8.52;6.78;;;;;;;;;;6267539;28;20324;-62
2022/11/21 09:51:56;;;;;;;8.77;6.45;;;;;;;;;;6270682;28;20063;-63
2022/11/21 09:55:00;;;;;;;7.55;6.28;;;;;;;;;;6264443;28;20190;-64
2022/11/21 09:58:05;;;;;;;7.22;6.32;;;;;;;;;;6267343;28;20378;-65
2022/11/21 10:01:10;;;;;;;8.40;6.20;;;;;;;;;;6266342;28;20048;-65
2022/11/21 10:04:13;;;;;;;8.45;6.38;;;;;;;;;;6262317;28;20064;-64
2022/11/21 10:07:17;;;;;;;8.18;7.20;;;;;;;;;;6266944;28;20078;-65
2022/11/21 10:10:29;;;;;;;8.10;7.30;;;;;;;;;;6257517;28;20106;-63
2022/11/21 10:13:46;;;;;;;9.63;6.80;;;;;;;;;;6265301;28;20202;-63
2022/11/21 10:16:51;;;;;;;7.63;6.82;;;;;;;;;;6263081;28;20345;-63
2022/11/21 10:20:04;;;;;;;13.57;7.60;;;;;;;;;;6259800;28;20098;-65
2022/11/21 10:23:11;;;;;;;;;;;;;;;;;;6268428;28;20224;-65
2022/11/21 10:26:16;;;;;;;11.38;8.25;;;;;;;;;;6263973;28;19917;-65
2022/11/21 10:29:22;;;;;;;10.38;8.75;;;;;;;;;;6262952;28;20500;-64
2022/11/21 10:32:27;;;;;;;18.02;12.45;;;;;;;;;;6262473;28;20055;-63
2022/11/21 10:35:36;;;;;;;16.58;11.93;;;;;;;;;;6268034;28;20045;-64
2022/11/21 10:38:40;;;;;;;11.27;10.10;;;;;;;;;;6265664;28;20049;-64
2022/11/21 10:41:49;;;;;;;12.80;9.30;;;;;;;;;;6258644;28;20075;-65
2022/11/21 10:48:10;;;;;;;13.07;9.95;;;;;;;;;;6267284;28;20041;-66
2022/11/21 10:51:25;;;;;;;11.77;9.27;;;;;;;;;;6265434;28;20153;-66
2022/11/21 10:54:33;;;;;;;11.70;9.48;;;;;;;;;;6264197;28;20045;-68
2022/11/21 10:57:39;;;;;;;12.20;10.45;;;;;;;;;;6265167;28;20086;-66
2022/11/21 11:00:56;;;;;;;14.45;9.60;;;;;;;;;;6255272;28;20045;-66
2022/11/21 11:04:17;;;;;;;10.02;8.48;;;;;;;;;;6264006;28;20112;-66
2022/11/21 11:07:24;;;;;;;10.93;9.40;;;;;;;;;;6266739;28;20065;-66
2022/11/21 11:10:26;;;;;;;11.52;9.73;;;;;;;;;;6265789;28;20057;-66
2022/11/21 11:13:36;;;;;;;12.32;9.23;;;;;;;;;;6257819;28;20048;-66
2022/11/21 11:16:42;;;;;;;11.50;8.98;;;;;;;;;;6263679;28;20057;-66
2022/11/21 11:20:00;;;;;;;12.13;8.77;;;;;;;;;;6265891;28;20106;-64
2022/11/21 11:23:18;;;;;;;12.73;9.55;;;;;;;;;;6261397;28;20063;-64
2022/11/21 11:26:29;;;;;;;12.88;8.75;;;;;;;;;;6263667;28;20080;-64
2022/11/21 11:29:34;;;;;;;11.80;8.38;;;;;;;;;;6268549;28;20317;-64
2022/11/21 11:32:39;;;;;;;10.07;7.45;;;;;;;;;;6268442;28;20083;-64
2022/11/21 11:35:42;;;;;;;11.23;8.07;;;;;;;;;;6265044;28;20046;-64
2022/11/21 11:38:48;;;;;;;9.43;7.38;;;;;;;;;;6264258;28;20140;-64
2022/11/21 11:49:16;;;;;;;6.80;5.25;;;;;;;;;;6265052;28;20045;-66
2022/11/21 11:52:20;;;;;;;8.55;5.38;;;;;;;;;;6265595;28;20483;-65
2022/11/21 11:55:26;;;;;;;7.32;5.55;;;;;;;;;;6263743;28;20059;-64
2022/11/21 11:58:33;;;;;;;7.13;5.82;;;;;;;;;;6263181;28;20051;-66
2022/11/21 12:01:37;;;;;;;6.30;5.15;;;;;;;;;;6263864;28;20057;-65
2022/11/21 12:04:42;;;;;;;6.32;5.55;;;;;;;;;;6261692;28;20080;-64
2022/11/21 12:07:48;;;;;;;6.57;5.75;;;;;;;;;;6265825;28;20049;-64
2022/11/21 12:18:15;;;;;;;10.32;7.47;;;;;;;;;;6212597;28;20117;-64
2022/11/21 12:21:17;;;;;;;8.32;6.72;;;;;;;;;;6216859;28;20076;-64
2022/11/21 12:24:21;;;;;;;8.05;6.05;;;;;;;;;;6216903;28;20105;-65
2022/11/21 12:27:28;;;;;;;;;;;;;;;;;;6217448;28;20061;-65
2022/11/21 12:30:47;;;;;;;8.57;6.30;;;;;;;;;;6216277;28;21177;-65
2022/11/21 12:33:57;;;;;;;8.40;6.65;;;;;;;;;;6218357;28;20052;-65
2022/11/21 12:37:04;;;;;;;9.38;7.28;;;;;;;;;;6218519;28;20818;-65
2022/11/21 12:40:23;;;;;;;10.52;6.82;;;;;;;;;;6219981;28;20145;-65
2022/11/21 12:43:31;;;;;;;11.63;8.07;;;;;;;;;;6220074;28;20065;-66
2022/11/21 12:46:38;;;;;;;10.63;6.78;;;;;;;;;;6267232;28;20061;-64
2022/11/21 12:56:43;;;;;;;8.15;6.95;;;;;;;;;;6201057;28;20134;-69
2022/11/21 12:59:52;;;;;;;9.68;7.30;;;;;;;;;;6200607;28;20097;-69
2022/11/21 13:03:07;;;;;;;8.40;6.45;;;;;;;;;;6204011;28;20050;-72
2022/11/21 13:06:15;;;;;;;10.27;7.30;;;;;;;;;;6202939;28;20073;-70
2022/11/21 13:09:19;;;;;;;8.23;6.25;;;;;;;;;;6203207;28;20046;-68
2022/11/21 13:12:26;;;;;;;9.05;6.50;;;;;;;;;;6203851;28;20258;-68
2022/11/21 13:15:33;;;;;;;9.95;6.80;;;;;;;;;;6201673;28;20320;-62
2022/11/21 13:18:37;;;;;;;8.15;6.25;;;;;;;;;;6201924;28;20050;-68
2022/11/21 13:21:42;;;;;;;10.02;6.15;;;;;;;;;;6202227;28;20267;-67
2022/11/21 13:24:58;;;;;;;10.07;6.38;;;;;;;;;;6202158;28;20246;-69
2022/11/21 13:28:38;;;;;;;10.88;7.20;;;;;;;;;;6204712;28;20118;-69
2022/11/21 13:31:42;;;;;;;12.43;7.38;;;;;;;;;;6192931;28;20074;-70
2022/11/21 13:34:43;;;;;;;;;;;;;;;;;;6266912;28;20056;-69
2022/11/21 13:38:02;;;;;;;7.78;5.40;;;;;;;;;;6268857;28;20219;-70
2022/11/21 13:44:39;;;;;;;9.23;5.72;;;;;;;;;;6188348;28;20042;-69
2022/11/21 13:48:16;;;;;;;7.75;5.47;;;;;;;;;;6190711;28;20106;-69
2022/11/21 13:51:39;;;;;;;8.27;6.45;;;;;;;;;;6169923;28;20046;-68
2022/11/21 13:55:14;;;;;;;9.55;7.07;;;;;;;;;;6187198;28;20289;-66
2022/11/21 13:58:26;;;;;;;11.35;7.18;;;;;;;;;;6194509;28;20085;-63
2022/11/21 14:02:07;;;;;;;10.18;7.15;;;;;;;;;;6191652;28;20046;-67
2022/11/21 14:05:20;;;;;;;10.45;7.28;;;;;;;;;;6179543;28;20262;-69
2022/11/21 14:08:25;;;;;;;10.50;8.07;;;;;;;;;;6188262;28;20054;-69
2022/11/21 14:11:32;;;;;;;11.38;8.40;;;;;;;;;;6191660;28;20158;-70
2022/11/21 14:14:37;;;;;;;9.73;7.45;;;;;;;;;;6208421;28;20049;-69
2022/11/21 14:17:43;;;;;;;11.10;7.38;;;;;;;;;;6263985;28;20241;-68
2022/11/21 14:20:51;;;;;;;11.15;6.93;;;;;;;;;;6269674;28;20073;-68
2022/11/21 14:23:54;;;;;;;14.38;8.07;;;;;;;;;;6272015;28;20279;-68
2022/11/21 14:26:56;;;;;;;11.60;6.90;;;;;;;;;;6269612;28;20083;-63
2022/11/21 14:29:59;;;;;;;12.32;7.53;;;;;;;;;;6266852;28;20056;-65
2022/11/21 14:33:21;;;;;;;9.88;7.43;;;;;;;;;;6271608;28;20052;-68
2022/11/21 14:36:24;;;;;;;11.13;7.95;;;;;;;;;;6267578;28;20049;-67
2022/11/21 14:39:28;;;;;;;11.38;8.27;;;;;;;;;;6266948;28;20114;-64
2022/11/21 14:42:34;;;;;;;13.00;10.43;;;;;;;;;;6269222;28;20052;-69
2022/11/21 14:45:36;;;;;;;15.40;9.77;;;;;;;;;;6268319;28;20061;-69
2022/11/21 14:48:38;;;;;;;13.88;10.18;;;;;;;;;;6264698;28;20053;-69
2022/11/21 14:51:41;;;;;;;12.52;9.93;;;;;;;;;;6272595;28;20098;-69
2022/11/21 14:54:47;;;;;;;13.57;9.73;;;;;;;;;;6266640;28;20094;-68
2022/11/21 14:57:48;;;;;;;14.50;9.70;;;;;;;;;;6269186;28;20118;-68
2022/11/21 15:01:04;;;;;;;11.55;8.60;;;;;;;;;;6267687;28;20052;-68
2022/11/21 15:04:08;;;;;;;11.07;8.57;;;;;;;;;;6268146;28;20408;-69
2022/11/21 15:07:18;;;;;;;11.77;8.55;;;;;;;;;;6264656;28;20050;-64
2022/11/21 15:10:23;;;;;;;10.70;8.35;;;;;;;;;;6266008;28;20045;-65
2022/11/21 15:13:26;;;;;;;13.82;8.95;;;;;;;;;;6267643;28;20056;-67
2022/11/21 15:16:28;;;;;;;11.35;8.60;;;;;;;;;;6266655;28;20053;-68
2022/11/21 15:19:32;;;;;;;11.70;8.98;;;;;;;;;;6264286;28;20056;-71
2022/11/21 15:22:36;;;;;;;14.10;9.48;;;;;;;;;;6265268;28;20461;-69
2022/11/21 15:25:46;;;;;;;14.15;10.20;;;;;;;;;;6262066;28;20057;-71
2022/11/21 15:28:54;;;;;;;13.98;9.98;;;;;;;;;;6267263;28;20049;-71
2022/11/21 15:32:09;;;;;;;13.23;9.88;;;;;;;;;;6268705;28;20115;-70
2022/11/21 15:35:48;;;;;;;12.75;10.10;;;;;;;;;;6267090;28;20053;-71
2022/11/21 15:38:52;;;;;;;15.13;10.70;;;;;;;;;;6267740;28;20041;-70
2022/11/21 15:41:55;;;;;;;14.52;10.82;;;;;;;;;;6269036;28;20061;-70
2022/11/21 15:44:58;;;;;;;15.67;11.13;;;;;;;;;;6263974;28;20222;-70
2022/11/21 15:48:00;;;;;;;15.80;11.10;;;;;;;;;;6272311;28;20111;-68
2022/11/21 15:51:01;;;;;;;15.35;11.85;;;;;;;;;;6270972;28;20047;-68
2022/11/21 15:54:03;;;;;;;15.13;11.57;;;;;;;;;;6272432;28;20076;-70
2022/11/21 15:57:06;;;;;;;14.77;11.60;;;;;;;;;;6274062;28;20324;-69
2022/11/21 16:00:09;;;;;;;18.30;11.87;;;;;;;;;;6270285;28;20045;-67
2022/11/21 16:03:11;;;;;;;17.50;12.55;;;;;;;;;;6273476;28;20098;-70
2022/11/21 16:06:13;;;;;;;16.58;12.48;;;;;;;;;;6275372;28;20044;-68
2022/11/21 16:09:14;;;;;;;19.08;13.20;;;;;;;;;;6274246;28;20264;-69
2022/11/21 16:12:17;;;;;;;16.40;12.68;;;;;;;;;;6271055;28;20240;-68
2022/11/21 16:15:19;;;;;;;16.63;12.95;;;;;;;;;;6274450;28;20059;-67
2022/11/21 16:18:21;;;;;;;16.73;12.60;;;;;;;;;;6270640;28;20049;-64
2022/11/21 16:21:22;;;;;;;16.52;13.35;;;;;;;;;;6270376;28;20049;-70
2022/11/21 16:24:24;;;;;;;14.60;11.95;;;;;;;;;;6266667;28;20049;-70
2022/11/21 16:27:27;;;;;;;17.83;13.18;;;;;;;;;;6270138;28;20225;-66
2022/11/21 16:30:29;;;;;;;16.83;13.07;;;;;;;;;;6271550;28;20345;-68
2022/11/21 16:33:32;;;;;;;17.25;13.35;;;;;;;;;;6271118;28;20053;-70
2022/11/21 16:36:33;;;;;;;16.90;13.27;;;;;;;;;;6267953;28;20053;-70
2022/11/21 16:39:35;;;;;;;18.60;13.27;;;;;;;;;;6269473;28;20061;-71
2022/11/21 16:42:38;;;;;;;18.83;13.50;;;;;;;;;;6268822;28;20317;-72
2022/11/21 16:45:40;;;;;;;18.97;13.37;;;;;;;;;;6269853;28;20065;-72
2022/11/21 16:48:42;;;;;;;17.70;13.88;;;;;;;;;;6268240;28;20277;-74
2022/11/21 16:51:44;;;;;;;16.35;13.15;;;;;;;;;;6268499;28;20077;-70
2022/11/21 16:54:45;;;;;;;17.13;13.23;;;;;;;;;;6267432;28;20272;-70
2022/11/21 16:57:49;;;;;;;18.48;13.38;;;;;;;;;;6269152;28;20349;-69
2022/11/21 17:00:50;;;;;;;21.13;13.93;;;;;;;;;;6266997;28;20052;-68
2022/11/21 17:03:52;;;;;;;19.10;13.70;;;;;;;;;;6270814;28;20056;-68
2022/11/21 17:06:54;;;;;;;20.27;14.07;;;;;;;;;;6268231;28;20049;-70
2022/11/21 17:09:56;;;;;;;19.27;13.82;;;;;;;;;;6269001;28;20720;-69
2022/11/21 17:12:59;;;;;;;19.08;13.20;;;;;;;;;;6267811;28;20056;-68
2022/11/21 17:16:04;;;;;;;22.33;13.88;;;;;;;;;;6268356;28;20049;-71
2022/11/21 17:19:06;;;;;;;17.20;13.05;;;;;;;;;;6267188;28;20057;-70
2022/11/21 17:22:08;;;;;;;17.25;12.95;;;;;;;;;;6268127;28;20056;-71
2022/11/21 17:25:10;;;;;;;18.60;13.73;;;;;;;;;;6269627;28;20045;-71
2022/11/21 17:28:13;;;;;;;17.67;13.85;;;;;;;;;;6267991;28;20053;-71
2022/11/21 17:31:16;;;;;;;19.20;13.27;;;;;;;;;;6269645;28;20049;-69
2022/11/21 17:34:18;;;;;;;17.88;14.13;;;;;;;;;;6269527;28;20451;-73
2022/11/21 17:37:20;;;;;;;18.42;13.73;;;;;;;;;;6269456;28;20053;-71
2022/11/21 17:40:22;;;;;;;21.38;14.55;;;;;;;;;;6267270;28;20296;-71
2022/11/21 17:43:25;;;;;;;19.23;14.48;;;;;;;;;;6266918;28;20052;-75
2022/11/21 17:46:27;;;;;;;19.05;14.43;;;;;;;;;;6266171;28;20795;-72
2022/11/21 17:49:35;;;;;;;19.60;14.88;;;;;;;;;;6269924;28;20045;-71
2022/11/21 17:52:37;;;;;;;22.83;15.88;;;;;;;;;;6266396;28;20060;-75
2022/11/21 17:55:39;;;;;;;21.65;15.23;;;;;;;;;;6267104;28;20337;-74
2022/11/21 17:58:42;;;;;;;23.92;15.88;;;;;;;;;;6263857;28;20045;-74
2022/11/21 18:01:43;;;;;;;21.83;15.70;;;;;;;;;;6267877;28;20053;-70
2022/11/21 18:04:45;;;;;;;20.67;15.02;;;;;;;;;;6266639;28;20072;-72
2022/11/21 18:07:47;;;;;;;20.52;14.48;;;;;;;;;;6266085;28;20060;-72
2022/11/21 18:10:52;;;;;;;19.85;14.52;;;;;;;;;;6259333;28;20365;-72
2022/11/21 18:13:55;;;;;;;22.23;15.13;;;;;;;;;;6265878;28;20057;-71
2022/11/21 18:16:56;;;;;;;22.55;14.73;;;;;;;;;;6259339;28;20104;-70
2022/11/21 18:19:58;;;;;;;26.08;15.77;;;;;;;;;;6266801;28;20084;-70
2022/11/21 18:23:00;;;;;;;21.52;14.98;;;;;;;;;;6267687;28;20049;-71
2022/11/21 18:26:02;;;;;;;19.13;14.73;;;;;;;;;;6265281;28;20053;-71
2022/11/21 18:29:07;;;;;;;23.30;15.63;;;;;;;;;;6268662;28;20064;-71
2022/11/21 18:32:09;;;;;;;24.60;16.58;;;;;;;;;;6265877;28;20283;-70
2022/11/21 18:35:10;;;;;;;27.50;18.33;;;;;;;;;;6264889;28;20051;-70
2022/11/21 18:38:12;;;;;;;23.42;17.20;;;;;;;;;;6264757;28;20090;-75
2022/11/21 18:41:15;;;;;;;27.27;17.67;;;;;;;;;;6264718;28;20052;-69
2022/11/21 18:44:18;;;;;;;25.50;17.70;;;;;;;;;;6266996;28;20197;-69